sensor_id;sensor_type;location;lat;lon;timestamp;P1;durP1;ratioP1;P2;durP2;ratioP2
48613;SDS011;34408;51.426;5.444;2023-02-23T00:00:24;37.00;;;22.70;;
48613;SDS011;34408;51.426;5.444;2023-02-23T00:02:54;40.70;;;24.40;;
48613;SDS011;34408;51.426;5.444;2023-02-23T00:05:24;39.63;;;24.17;;
48613;SDS011;34408;51.426;5.444;2023-02-23T00:07:54;33.20;;;21.60;;
48613;SDS011;34408;51.426;5.444;2023-02-23T00:10:22;36.90;;;24.25;;
48613;SDS011;34408;51.426;5.444;2023-02-23T00:12:55;37.70;;;23.42;;
48613;SDS011;34408;51.426;5.444;2023-02-23T00:15:24;40.45;;;25.00;;
48613;SDS011;34408;51.426;5.444;2023-02-23T00:17:52;39.25;;;23.75;;
48613;SDS011;34408;51.426;5.444;2023-02-23T00:20:21;37.85;;;23.67;;
48613;SDS011;34408;51.426;5.444;2023-02-23T00:22:54;37.13;;;22.85;;
48613;SDS011;34408;51.426;5.444;2023-02-23T00:25:23;39.08;;;24.10;;
48613;SDS011;34408;51.426;5.444;2023-02-23T00:27:51;37.88;;;25.00;;
48613;SDS011;34408;51.426;5.444;2023-02-23T00:30:20;42.78;;;25.80;;
48613;SDS011;34408;51.426;5.444;2023-02-23T00:32:48;39.00;;;25.02;;
48613;SDS011;34408;51.426;5.444;2023-02-23T00:35:17;37.15;;;22.65;;
48613;SDS011;34408;51.426;5.444;2023-02-23T00:37:45;37.65;;;23.00;;
48613;SDS011;34408;51.426;5.444;2023-02-23T00:40:16;36.85;;;23.73;;
48613;SDS011;34408;51.426;5.444;2023-02-23T00:42:48;40.10;;;25.38;;
48613;SDS011;34408;51.426;5.444;2023-02-23T00:45:17;39.88;;;24.63;;
48613;SDS011;34408;51.426;5.444;2023-02-23T00:47:45;42.35;;;25.25;;
48613;SDS011;34408;51.426;5.444;2023-02-23T00:50:14;40.00;;;25.05;;
48613;SDS011;34408;51.426;5.444;2023-02-23T00:52:43;41.10;;;25.67;;
48613;SDS011;34408;51.426;5.444;2023-02-23T00:55:11;39.65;;;24.42;;
48613;SDS011;34408;51.426;5.444;2023-02-23T00:57:41;41.83;;;24.48;;
48613;SDS011;34408;51.426;5.444;2023-02-23T01:00:10;45.60;;;26.55;;
48613;SDS011;34408;51.426;5.444;2023-02-23T01:02:45;40.75;;;24.20;;
48613;SDS011;34408;51.426;5.444;2023-02-23T01:05:14;43.42;;;25.77;;
48613;SDS011;34408;51.426;5.444;2023-02-23T01:07:43;43.90;;;25.02;;
48613;SDS011;34408;51.426;5.444;2023-02-23T01:10:12;41.20;;;25.40;;
48613;SDS011;34408;51.426;5.444;2023-02-23T01:12:47;42.40;;;26.23;;
48613;SDS011;34408;51.426;5.444;2023-02-23T01:15:17;39.17;;;24.92;;
48613;SDS011;34408;51.426;5.444;2023-02-23T01:17:46;40.95;;;25.95;;
48613;SDS011;34408;51.426;5.444;2023-02-23T01:20:14;45.00;;;26.45;;
48613;SDS011;34408;51.426;5.444;2023-02-23T01:22:44;44.47;;;26.90;;
48613;SDS011;34408;51.426;5.444;2023-02-23T01:25:14;47.63;;;27.45;;
48613;SDS011;34408;51.426;5.444;2023-02-23T01:27:42;44.42;;;28.13;;
48613;SDS011;34408;51.426;5.444;2023-02-23T01:30:13;46.65;;;26.75;;
48613;SDS011;34408;51.426;5.444;2023-02-23T01:32:41;42.10;;;25.63;;
48613;SDS011;34408;51.426;5.444;2023-02-23T01:35:10;46.15;;;27.17;;
48613;SDS011;34408;51.426;5.444;2023-02-23T01:37:39;44.33;;;27.08;;
48613;SDS011;34408;51.426;5.444;2023-02-23T01:40:11;42.58;;;25.77;;
48613;SDS011;34408;51.426;5.444;2023-02-23T01:42:42;40.63;;;26.67;;
48613;SDS011;34408;51.426;5.444;2023-02-23T01:45:18;45.65;;;27.52;;
48613;SDS011;34408;51.426;5.444;2023-02-23T01:47:51;41.78;;;24.88;;
48613;SDS011;34408;51.426;5.444;2023-02-23T01:50:22;46.65;;;26.70;;
48613;SDS011;34408;51.426;5.444;2023-02-23T01:52:52;40.65;;;26.23;;
48613;SDS011;34408;51.426;5.444;2023-02-23T01:55:22;42.03;;;25.20;;
48613;SDS011;34408;51.426;5.444;2023-02-23T01:57:56;44.13;;;27.67;;
48613;SDS011;34408;51.426;5.444;2023-02-23T02:00:32;41.10;;;26.23;;
48613;SDS011;34408;51.426;5.444;2023-02-23T02:03:03;49.95;;;28.65;;
48613;SDS011;34408;51.426;5.444;2023-02-23T02:05:37;46.83;;;27.17;;
48613;SDS011;34408;51.426;5.444;2023-02-23T02:08:06;45.88;;;27.38;;
48613;SDS011;34408;51.426;5.444;2023-02-23T02:10:36;46.75;;;27.98;;
48613;SDS011;34408;51.426;5.444;2023-02-23T02:13:11;46.85;;;28.15;;
48613;SDS011;34408;51.426;5.444;2023-02-23T02:15:57;54.70;;;29.20;;
48613;SDS011;34408;51.426;5.444;2023-02-23T02:18:34;51.80;;;29.60;;
48613;SDS011;34408;51.426;5.444;2023-02-23T02:27:40;59.72;;;31.88;;
48613;SDS011;34408;51.426;5.444;2023-02-23T02:30:42;56.67;;;33.25;;
48613;SDS011;34408;51.426;5.444;2023-02-23T02:33:33;59.85;;;32.50;;
48613;SDS011;34408;51.426;5.444;2023-02-23T02:39:30;59.78;;;34.72;;
48613;SDS011;34408;51.426;5.444;2023-02-23T02:42:14;62.65;;;35.35;;
48613;SDS011;34408;51.426;5.444;2023-02-23T02:44:49;62.75;;;36.58;;
48613;SDS011;34408;51.426;5.444;2023-02-23T02:47:24;60.58;;;36.03;;
48613;SDS011;34408;51.426;5.444;2023-02-23T02:49:58;62.35;;;35.47;;
48613;SDS011;34408;51.426;5.444;2023-02-23T02:52:34;61.22;;;33.10;;
48613;SDS011;34408;51.426;5.444;2023-02-23T02:55:06;58.60;;;34.15;;
48613;SDS011;34408;51.426;5.444;2023-02-23T02:57:39;51.70;;;31.65;;
48613;SDS011;34408;51.426;5.444;2023-02-23T03:00:11;56.40;;;31.02;;
48613;SDS011;34408;51.426;5.444;2023-02-23T03:03:01;55.38;;;30.92;;
48613;SDS011;34408;51.426;5.444;2023-02-23T03:05:46;52.88;;;31.40;;
48613;SDS011;34408;51.426;5.444;2023-02-23T03:08:38;55.53;;;31.52;;
48613;SDS011;34408;51.426;5.444;2023-02-23T03:11:32;49.20;;;28.25;;
48613;SDS011;34408;51.426;5.444;2023-02-23T03:14:25;56.65;;;31.50;;
48613;SDS011;34408;51.426;5.444;2023-02-23T03:17:19;51.33;;;30.10;;
48613;SDS011;34408;51.426;5.444;2023-02-23T03:20:13;55.78;;;32.22;;
48613;SDS011;34408;51.426;5.444;2023-02-23T03:23:08;57.78;;;32.85;;
48613;SDS011;34408;51.426;5.444;2023-02-23T03:26:03;59.58;;;33.30;;
48613;SDS011;34408;51.426;5.444;2023-02-23T03:28:54;60.65;;;33.55;;
48613;SDS011;34408;51.426;5.444;2023-02-23T03:31:47;58.00;;;33.80;;
48613;SDS011;34408;51.426;5.444;2023-02-23T03:34:39;60.95;;;32.75;;
48613;SDS011;34408;51.426;5.444;2023-02-23T03:37:30;59.75;;;33.40;;
48613;SDS011;34408;51.426;5.444;2023-02-23T03:40:21;61.88;;;35.83;;
48613;SDS011;34408;51.426;5.444;2023-02-23T03:43:12;54.13;;;33.33;;
48613;SDS011;34408;51.426;5.444;2023-02-23T03:46:02;58.90;;;34.10;;
48613;SDS011;34408;51.426;5.444;2023-02-23T03:48:53;59.22;;;33.65;;
48613;SDS011;34408;51.426;5.444;2023-02-23T03:51:41;59.60;;;34.03;;
48613;SDS011;34408;51.426;5.444;2023-02-23T03:54:32;60.88;;;34.47;;
48613;SDS011;34408;51.426;5.444;2023-02-23T03:57:21;60.28;;;34.20;;
48613;SDS011;34408;51.426;5.444;2023-02-23T04:00:13;59.55;;;33.45;;
48613;SDS011;34408;51.426;5.444;2023-02-23T04:03:03;62.80;;;35.75;;
48613;SDS011;34408;51.426;5.444;2023-02-23T04:05:52;63.17;;;34.90;;
48613;SDS011;34408;51.426;5.444;2023-02-23T04:08:39;60.13;;;35.17;;
48613;SDS011;34408;51.426;5.444;2023-02-23T04:11:27;57.20;;;32.63;;
48613;SDS011;34408;51.426;5.444;2023-02-23T04:14:18;61.40;;;33.88;;
48613;SDS011;34408;51.426;5.444;2023-02-23T04:16:53;60.42;;;34.22;;
48613;SDS011;34408;51.426;5.444;2023-02-23T04:19:20;57.50;;;33.95;;
48613;SDS011;34408;51.426;5.444;2023-02-23T04:21:48;59.17;;;34.33;;
48613;SDS011;34408;51.426;5.444;2023-02-23T04:24:15;58.42;;;34.92;;
48613;SDS011;34408;51.426;5.444;2023-02-23T04:26:43;58.63;;;34.45;;
48613;SDS011;34408;51.426;5.444;2023-02-23T04:29:11;60.05;;;34.33;;
48613;SDS011;34408;51.426;5.444;2023-02-23T04:31:39;59.80;;;33.97;;
48613;SDS011;34408;51.426;5.444;2023-02-23T04:34:09;59.00;;;34.13;;
48613;SDS011;34408;51.426;5.444;2023-02-23T04:36:37;53.85;;;32.45;;
48613;SDS011;34408;51.426;5.444;2023-02-23T04:39:05;61.38;;;35.17;;
48613;SDS011;34408;51.426;5.444;2023-02-23T04:41:33;61.58;;;35.15;;
48613;SDS011;34408;51.426;5.444;2023-02-23T04:44:01;57.85;;;33.28;;
48613;SDS011;34408;51.426;5.444;2023-02-23T04:46:29;54.92;;;32.47;;
48613;SDS011;34408;51.426;5.444;2023-02-23T04:48:57;55.58;;;33.15;;
48613;SDS011;34408;51.426;5.444;2023-02-23T04:51:26;63.60;;;35.75;;
48613;SDS011;34408;51.426;5.444;2023-02-23T04:53:57;57.83;;;33.38;;
48613;SDS011;34408;51.426;5.444;2023-02-23T04:56:25;62.67;;;34.15;;
48613;SDS011;34408;51.426;5.444;2023-02-23T04:58:53;54.30;;;32.45;;
48613;SDS011;34408;51.426;5.444;2023-02-23T05:01:21;59.42;;;35.38;;
48613;SDS011;34408;51.426;5.444;2023-02-23T05:03:48;58.38;;;34.22;;
48613;SDS011;34408;51.426;5.444;2023-02-23T05:06:17;54.00;;;33.13;;
48613;SDS011;34408;51.426;5.444;2023-02-23T05:08:47;58.00;;;35.03;;
48613;SDS011;34408;51.426;5.444;2023-02-23T05:11:15;59.13;;;33.55;;
48613;SDS011;34408;51.426;5.444;2023-02-23T05:13:43;58.17;;;34.65;;
48613;SDS011;34408;51.426;5.444;2023-02-23T05:16:10;53.85;;;31.80;;
48613;SDS011;34408;51.426;5.444;2023-02-23T05:18:38;52.90;;;32.78;;
48613;SDS011;34408;51.426;5.444;2023-02-23T05:21:07;57.45;;;33.47;;
48613;SDS011;34408;51.426;5.444;2023-02-23T05:23:35;52.13;;;32.28;;
48613;SDS011;34408;51.426;5.444;2023-02-23T05:26:05;56.50;;;33.35;;
48613;SDS011;34408;51.426;5.444;2023-02-23T05:28:35;52.30;;;31.70;;
48613;SDS011;34408;51.426;5.444;2023-02-23T05:31:04;51.65;;;31.17;;
48613;SDS011;34408;51.426;5.444;2023-02-23T05:33:32;54.00;;;32.67;;
48613;SDS011;34408;51.426;5.444;2023-02-23T05:36:08;50.72;;;31.08;;
48613;SDS011;34408;51.426;5.444;2023-02-23T05:38:37;52.90;;;32.33;;
48613;SDS011;34408;51.426;5.444;2023-02-23T05:41:06;53.78;;;32.33;;
48613;SDS011;34408;51.426;5.444;2023-02-23T05:43:35;51.95;;;30.35;;
48613;SDS011;34408;51.426;5.444;2023-02-23T05:46:04;49.00;;;29.40;;
48613;SDS011;34408;51.426;5.444;2023-02-23T05:48:33;50.13;;;30.17;;
48613;SDS011;34408;51.426;5.444;2023-02-23T05:51:01;49.08;;;29.95;;
48613;SDS011;34408;51.426;5.444;2023-02-23T05:53:29;49.42;;;30.13;;
48613;SDS011;34408;51.426;5.444;2023-02-23T05:55:57;47.75;;;27.88;;
48613;SDS011;34408;51.426;5.444;2023-02-23T05:58:26;53.28;;;30.13;;
48613;SDS011;34408;51.426;5.444;2023-02-23T06:00:54;51.85;;;31.00;;
48613;SDS011;34408;51.426;5.444;2023-02-23T06:03:21;45.65;;;27.92;;
48613;SDS011;34408;51.426;5.444;2023-02-23T06:05:49;48.55;;;29.65;;
48613;SDS011;34408;51.426;5.444;2023-02-23T06:08:18;48.97;;;29.55;;
48613;SDS011;34408;51.426;5.444;2023-02-23T06:10:46;49.05;;;28.83;;
48613;SDS011;34408;51.426;5.444;2023-02-23T06:13:14;52.92;;;30.13;;
48613;SDS011;34408;51.426;5.444;2023-02-23T06:15:43;46.17;;;27.63;;
48613;SDS011;34408;51.426;5.444;2023-02-23T06:18:10;51.88;;;29.75;;
48613;SDS011;34408;51.426;5.444;2023-02-23T06:20:38;46.55;;;27.75;;
48613;SDS011;34408;51.426;5.444;2023-02-23T06:23:06;45.10;;;27.98;;
48613;SDS011;34408;51.426;5.444;2023-02-23T06:25:34;46.95;;;29.02;;
48613;SDS011;34408;51.426;5.444;2023-02-23T06:28:02;46.50;;;27.58;;
48613;SDS011;34408;51.426;5.444;2023-02-23T06:30:30;51.97;;;29.67;;
48613;SDS011;34408;51.426;5.444;2023-02-23T06:32:59;45.72;;;27.73;;
48613;SDS011;34408;51.426;5.444;2023-02-23T06:35:27;44.97;;;27.38;;
48613;SDS011;34408;51.426;5.444;2023-02-23T06:37:55;49.15;;;28.90;;
48613;SDS011;34408;51.426;5.444;2023-02-23T06:40:23;47.60;;;28.35;;
48613;SDS011;34408;51.426;5.444;2023-02-23T06:42:50;45.85;;;27.65;;
48613;SDS011;34408;51.426;5.444;2023-02-23T06:45:18;44.35;;;27.67;;
48613;SDS011;34408;51.426;5.444;2023-02-23T06:47:46;44.00;;;26.65;;
48613;SDS011;34408;51.426;5.444;2023-02-23T06:50:16;42.35;;;26.85;;
48613;SDS011;34408;51.426;5.444;2023-02-23T06:52:44;43.67;;;25.80;;
48613;SDS011;34408;51.426;5.444;2023-02-23T06:55:12;42.35;;;26.75;;
48613;SDS011;34408;51.426;5.444;2023-02-23T06:57:40;40.25;;;25.52;;
48613;SDS011;34408;51.426;5.444;2023-02-23T07:00:10;46.72;;;26.67;;
48613;SDS011;34408;51.426;5.444;2023-02-23T07:02:40;44.13;;;26.77;;
48613;SDS011;34408;51.426;5.444;2023-02-23T07:05:09;44.15;;;27.25;;
48613;SDS011;34408;51.426;5.444;2023-02-23T07:07:39;43.15;;;26.80;;
48613;SDS011;34408;51.426;5.444;2023-02-23T07:10:07;45.47;;;27.13;;
48613;SDS011;34408;51.426;5.444;2023-02-23T07:12:35;44.05;;;26.42;;
48613;SDS011;34408;51.426;5.444;2023-02-23T07:15:03;48.25;;;27.80;;
48613;SDS011;34408;51.426;5.444;2023-02-23T07:17:32;45.33;;;27.02;;
48613;SDS011;34408;51.426;5.444;2023-02-23T07:19:59;45.92;;;27.50;;
48613;SDS011;34408;51.426;5.444;2023-02-23T07:22:27;44.35;;;25.90;;
48613;SDS011;34408;51.426;5.444;2023-02-23T07:24:57;42.55;;;26.55;;
48613;SDS011;34408;51.426;5.444;2023-02-23T07:27:25;46.55;;;28.60;;
48613;SDS011;34408;51.426;5.444;2023-02-23T07:29:52;43.70;;;27.23;;
48613;SDS011;34408;51.426;5.444;2023-02-23T07:32:20;45.88;;;28.10;;
48613;SDS011;34408;51.426;5.444;2023-02-23T07:34:48;43.40;;;25.80;;
48613;SDS011;34408;51.426;5.444;2023-02-23T07:37:19;47.88;;;26.92;;
48613;SDS011;34408;51.426;5.444;2023-02-23T07:39:47;43.63;;;26.77;;
48613;SDS011;34408;51.426;5.444;2023-02-23T07:42:16;46.17;;;26.00;;
48613;SDS011;34408;51.426;5.444;2023-02-23T07:44:44;43.17;;;26.30;;
48613;SDS011;34408;51.426;5.444;2023-02-23T07:47:11;45.05;;;27.08;;
48613;SDS011;34408;51.426;5.444;2023-02-23T07:49:39;42.72;;;27.33;;
48613;SDS011;34408;51.426;5.444;2023-02-23T07:52:07;48.22;;;29.45;;
48613;SDS011;34408;51.426;5.444;2023-02-23T07:54:35;45.50;;;27.10;;
48613;SDS011;34408;51.426;5.444;2023-02-23T07:57:03;45.13;;;28.15;;
48613;SDS011;34408;51.426;5.444;2023-02-23T07:59:32;49.70;;;29.58;;
48613;SDS011;34408;51.426;5.444;2023-02-23T08:02:00;49.13;;;29.67;;
48613;SDS011;34408;51.426;5.444;2023-02-23T08:04:28;50.58;;;28.80;;
48613;SDS011;34408;51.426;5.444;2023-02-23T08:06:56;50.50;;;29.95;;
48613;SDS011;34408;51.426;5.444;2023-02-23T08:09:23;47.65;;;28.45;;
48613;SDS011;34408;51.426;5.444;2023-02-23T08:11:51;44.05;;;28.17;;
48613;SDS011;34408;51.426;5.444;2023-02-23T08:14:19;46.72;;;29.00;;
48613;SDS011;34408;51.426;5.444;2023-02-23T08:16:50;50.47;;;27.73;;
48613;SDS011;34408;51.426;5.444;2023-02-23T08:19:18;45.75;;;28.85;;
48613;SDS011;34408;51.426;5.444;2023-02-23T08:21:48;47.63;;;28.40;;
48613;SDS011;34408;51.426;5.444;2023-02-23T08:24:16;47.13;;;27.75;;
48613;SDS011;34408;51.426;5.444;2023-02-23T08:26:44;50.10;;;28.83;;
48613;SDS011;34408;51.426;5.444;2023-02-23T08:29:11;47.40;;;28.38;;
48613;SDS011;34408;51.426;5.444;2023-02-23T08:31:39;48.92;;;29.65;;
48613;SDS011;34408;51.426;5.444;2023-02-23T08:34:08;47.78;;;29.17;;
48613;SDS011;34408;51.426;5.444;2023-02-23T08:36:36;49.03;;;28.92;;
48613;SDS011;34408;51.426;5.444;2023-02-23T08:39:05;51.70;;;29.85;;
48613;SDS011;34408;51.426;5.444;2023-02-23T08:41:38;47.35;;;27.48;;
48613;SDS011;34408;51.426;5.444;2023-02-23T08:44:06;48.25;;;29.70;;
48613;SDS011;34408;51.426;5.444;2023-02-23T08:46:34;47.97;;;28.45;;
48613;SDS011;34408;51.426;5.444;2023-02-23T08:49:02;50.78;;;30.48;;
48613;SDS011;34408;51.426;5.444;2023-02-23T08:51:32;54.42;;;29.88;;
48613;SDS011;34408;51.426;5.444;2023-02-23T08:54:00;51.63;;;29.83;;
48613;SDS011;34408;51.426;5.444;2023-02-23T08:56:28;51.63;;;31.13;;
48613;SDS011;34408;51.426;5.444;2023-02-23T08:58:56;50.75;;;29.40;;
48613;SDS011;34408;51.426;5.444;2023-02-23T09:01:24;50.50;;;29.83;;
48613;SDS011;34408;51.426;5.444;2023-02-23T09:03:52;48.10;;;29.35;;
48613;SDS011;34408;51.426;5.444;2023-02-23T09:06:21;48.30;;;29.58;;
48613;SDS011;34408;51.426;5.444;2023-02-23T09:08:53;46.58;;;27.48;;
48613;SDS011;34408;51.426;5.444;2023-02-23T09:11:22;50.65;;;29.40;;
48613;SDS011;34408;51.426;5.444;2023-02-23T09:13:52;49.85;;;28.77;;
48613;SDS011;34408;51.426;5.444;2023-02-23T09:16:20;49.83;;;29.27;;
48613;SDS011;34408;51.426;5.444;2023-02-23T09:18:48;50.78;;;29.17;;
48613;SDS011;34408;51.426;5.444;2023-02-23T09:21:16;49.45;;;30.00;;
48613;SDS011;34408;51.426;5.444;2023-02-23T09:23:47;46.25;;;27.25;;
48613;SDS011;34408;51.426;5.444;2023-02-23T09:26:18;48.63;;;29.40;;
48613;SDS011;34408;51.426;5.444;2023-02-23T09:28:47;50.08;;;29.15;;
48613;SDS011;34408;51.426;5.444;2023-02-23T09:31:15;51.30;;;28.05;;
48613;SDS011;34408;51.426;5.444;2023-02-23T09:33:46;49.10;;;28.73;;
48613;SDS011;34408;51.426;5.444;2023-02-23T09:36:15;50.13;;;29.55;;
48613;SDS011;34408;51.426;5.444;2023-02-23T09:38:44;48.25;;;29.15;;
48613;SDS011;34408;51.426;5.444;2023-02-23T09:44:23;51.70;;;29.30;;
48613;SDS011;34408;51.426;5.444;2023-02-23T09:46:59;48.90;;;30.50;;
48613;SDS011;34408;51.426;5.444;2023-02-23T09:49:40;52.80;;;32.40;;
48613;SDS011;34408;51.426;5.444;2023-02-23T09:52:14;50.35;;;31.00;;
48613;SDS011;34408;51.426;5.444;2023-02-23T09:54:45;55.55;;;32.47;;
48613;SDS011;34408;51.426;5.444;2023-02-23T09:57:13;53.95;;;32.03;;
48613;SDS011;34408;51.426;5.444;2023-02-23T09:59:46;56.15;;;32.38;;
48613;SDS011;34408;51.426;5.444;2023-02-23T10:02:17;50.70;;;30.45;;
48613;SDS011;34408;51.426;5.444;2023-02-23T10:04:50;53.25;;;31.13;;
48613;SDS011;34408;51.426;5.444;2023-02-23T10:07:24;47.30;;;29.02;;
48613;SDS011;34408;51.426;5.444;2023-02-23T10:10:12;50.35;;;30.48;;
48613;SDS011;34408;51.426;5.444;2023-02-23T10:12:49;51.75;;;31.10;;
48613;SDS011;34408;51.426;5.444;2023-02-23T10:15:30;49.10;;;29.52;;
48613;SDS011;34408;51.426;5.444;2023-02-23T10:18:06;45.92;;;28.83;;
48613;SDS011;34408;51.426;5.444;2023-02-23T10:20:43;47.30;;;28.50;;
48613;SDS011;34408;51.426;5.444;2023-02-23T10:23:17;45.13;;;29.33;;
48613;SDS011;34408;51.426;5.444;2023-02-23T10:25:50;45.80;;;26.77;;
48613;SDS011;34408;51.426;5.444;2023-02-23T10:28:21;39.58;;;26.25;;
48613;SDS011;34408;51.426;5.444;2023-02-23T10:30:50;46.55;;;27.20;;
48613;SDS011;34408;51.426;5.444;2023-02-23T10:33:21;43.88;;;25.35;;
48613;SDS011;34408;51.426;5.444;2023-02-23T10:35:54;39.42;;;24.40;;
48613;SDS011;34408;51.426;5.444;2023-02-23T10:38:38;35.25;;;23.48;;
48613;SDS011;34408;51.426;5.444;2023-02-23T10:41:06;39.95;;;25.10;;
48613;SDS011;34408;51.426;5.444;2023-02-23T10:43:40;37.45;;;24.05;;
48613;SDS011;34408;51.426;5.444;2023-02-23T10:46:11;36.95;;;23.45;;
48613;SDS011;34408;51.426;5.444;2023-02-23T10:48:47;39.85;;;24.25;;
48613;SDS011;34408;51.426;5.444;2023-02-23T10:51:18;39.53;;;24.73;;
48613;SDS011;34408;51.426;5.444;2023-02-23T10:53:55;39.42;;;23.27;;
48613;SDS011;34408;51.426;5.444;2023-02-23T10:56:30;41.65;;;25.30;;
48613;SDS011;34408;51.426;5.444;2023-02-23T10:58:59;36.00;;;22.20;;
48613;SDS011;34408;51.426;5.444;2023-02-23T11:01:33;37.88;;;23.42;;
48613;SDS011;34408;51.426;5.444;2023-02-23T11:04:13;39.10;;;24.95;;
48613;SDS011;34408;51.426;5.444;2023-02-23T11:06:45;36.55;;;23.65;;
48613;SDS011;34408;51.426;5.444;2023-02-23T11:09:21;37.42;;;23.25;;
48613;SDS011;34408;51.426;5.444;2023-02-23T11:12:14;38.00;;;23.25;;
48613;SDS011;34408;51.426;5.444;2023-02-23T11:14:47;39.50;;;24.63;;
48613;SDS011;34408;51.426;5.444;2023-02-23T11:20:05;38.50;;;23.63;;
48613;SDS011;34408;51.426;5.444;2023-02-23T11:22:49;36.90;;;23.15;;
48613;SDS011;34408;51.426;5.444;2023-02-23T11:25:20;38.92;;;23.45;;
48613;SDS011;34408;51.426;5.444;2023-02-23T11:27:52;37.05;;;23.23;;
48613;SDS011;34408;51.426;5.444;2023-02-23T11:30:23;35.42;;;22.52;;
48613;SDS011;34408;51.426;5.444;2023-02-23T11:32:56;38.67;;;23.95;;
48613;SDS011;34408;51.426;5.444;2023-02-23T11:35:34;39.75;;;24.45;;
48613;SDS011;34408;51.426;5.444;2023-02-23T11:38:13;39.10;;;23.88;;
48613;SDS011;34408;51.426;5.444;2023-02-23T11:40:42;38.03;;;23.60;;
48613;SDS011;34408;51.426;5.444;2023-02-23T11:43:25;43.92;;;26.77;;
48613;SDS011;34408;51.426;5.444;2023-02-23T11:45:54;41.15;;;25.40;;
48613;SDS011;34408;51.426;5.444;2023-02-23T11:48:26;41.20;;;26.05;;
48613;SDS011;34408;51.426;5.444;2023-02-23T11:50:59;43.63;;;27.23;;
48613;SDS011;34408;51.426;5.444;2023-02-23T11:53:28;44.38;;;26.80;;
48613;SDS011;34408;51.426;5.444;2023-02-23T11:56:01;40.45;;;24.88;;
48613;SDS011;34408;51.426;5.444;2023-02-23T11:58:38;44.42;;;27.33;;
48613;SDS011;34408;51.426;5.444;2023-02-23T12:01:11;45.80;;;27.48;;
48613;SDS011;34408;51.426;5.444;2023-02-23T12:03:45;42.05;;;26.55;;
48613;SDS011;34408;51.426;5.444;2023-02-23T12:06:24;40.78;;;25.92;;
48613;SDS011;34408;51.426;5.444;2023-02-23T12:08:56;41.33;;;26.42;;
48613;SDS011;34408;51.426;5.444;2023-02-23T12:11:32;40.00;;;25.80;;
48613;SDS011;34408;51.426;5.444;2023-02-23T12:14:07;43.37;;;26.53;;
48613;SDS011;34408;51.426;5.444;2023-02-23T12:16:43;41.53;;;26.55;;
48613;SDS011;34408;51.426;5.444;2023-02-23T12:19:21;43.20;;;25.60;;
48613;SDS011;34408;51.426;5.444;2023-02-23T12:21:52;40.25;;;25.52;;
48613;SDS011;34408;51.426;5.444;2023-02-23T12:24:31;39.92;;;24.35;;
48613;SDS011;34408;51.426;5.444;2023-02-23T12:27:10;35.42;;;22.05;;
48613;SDS011;34408;51.426;5.444;2023-02-23T12:29:53;34.45;;;22.40;;
48613;SDS011;34408;51.426;5.444;2023-02-23T12:32:30;39.67;;;24.03;;
48613;SDS011;34408;51.426;5.444;2023-02-23T12:35:09;36.38;;;21.88;;
48613;SDS011;34408;51.426;5.444;2023-02-23T12:37:43;35.58;;;22.35;;
48613;SDS011;34408;51.426;5.444;2023-02-23T12:40:16;34.28;;;21.35;;
48613;SDS011;34408;51.426;5.444;2023-02-23T12:42:50;32.17;;;21.10;;
48613;SDS011;34408;51.426;5.444;2023-02-23T12:45:25;31.40;;;19.55;;
48613;SDS011;34408;51.426;5.444;2023-02-23T12:48:06;29.42;;;18.65;;
48613;SDS011;34408;51.426;5.444;2023-02-23T12:50:43;27.38;;;18.08;;
48613;SDS011;34408;51.426;5.444;2023-02-23T12:53:19;28.10;;;17.77;;
48613;SDS011;34408;51.426;5.444;2023-02-23T12:56:03;28.30;;;17.45;;
48613;SDS011;34408;51.426;5.444;2023-02-23T12:58:45;27.45;;;16.30;;
48613;SDS011;34408;51.426;5.444;2023-02-23T13:01:20;30.55;;;18.10;;
48613;SDS011;34408;51.426;5.444;2023-02-23T13:03:59;31.55;;;17.60;;
48613;SDS011;34408;51.426;5.444;2023-02-23T13:06:43;27.10;;;17.70;;
48613;SDS011;34408;51.426;5.444;2023-02-23T13:09:24;31.45;;;18.52;;
48613;SDS011;34408;51.426;5.444;2023-02-23T13:12:05;27.10;;;16.58;;
48613;SDS011;34408;51.426;5.444;2023-02-23T13:14:44;26.77;;;16.48;;
48613;SDS011;34408;51.426;5.444;2023-02-23T13:17:24;28.17;;;18.02;;
48613;SDS011;34408;51.426;5.444;2023-02-23T13:19:59;28.25;;;15.93;;
48613;SDS011;34408;51.426;5.444;2023-02-23T13:22:39;25.98;;;16.17;;
48613;SDS011;34408;51.426;5.444;2023-02-23T13:25:21;26.92;;;15.73;;
48613;SDS011;34408;51.426;5.444;2023-02-23T13:27:59;24.08;;;14.82;;
48613;SDS011;34408;51.426;5.444;2023-02-23T13:30:28;25.77;;;14.85;;
48613;SDS011;34408;51.426;5.444;2023-02-23T13:32:58;21.38;;;13.32;;
48613;SDS011;34408;51.426;5.444;2023-02-23T13:35:32;19.17;;;12.80;;
48613;SDS011;34408;51.426;5.444;2023-02-23T13:38:06;19.08;;;11.80;;
48613;SDS011;34408;51.426;5.444;2023-02-23T13:40:41;18.48;;;12.23;;
48613;SDS011;34408;51.426;5.444;2023-02-23T13:43:17;18.83;;;10.60;;
48613;SDS011;34408;51.426;5.444;2023-02-23T13:45:58;20.60;;;12.10;;
48613;SDS011;34408;51.426;5.444;2023-02-23T13:48:37;22.98;;;12.27;;
48613;SDS011;34408;51.426;5.444;2023-02-23T13:51:26;23.90;;;12.52;;
48613;SDS011;34408;51.426;5.444;2023-02-23T13:54:22;20.03;;;11.07;;
48613;SDS011;34408;51.426;5.444;2023-02-23T13:56:55;16.13;;;10.32;;
48613;SDS011;34408;51.426;5.444;2023-02-23T13:59:27;17.50;;;10.35;;
48613;SDS011;34408;51.426;5.444;2023-02-23T14:01:59;15.25;;;9.63;;
48613;SDS011;34408;51.426;5.444;2023-02-23T14:04:33;17.25;;;10.50;;
48613;SDS011;34408;51.426;5.444;2023-02-23T14:07:03;14.25;;;8.32;;
48613;SDS011;34408;51.426;5.444;2023-02-23T14:09:43;16.05;;;9.88;;
48613;SDS011;34408;51.426;5.444;2023-02-23T14:12:22;13.95;;;8.60;;
48613;SDS011;34408;51.426;5.444;2023-02-23T14:14:51;14.13;;;8.13;;
48613;SDS011;34408;51.426;5.444;2023-02-23T14:17:38;15.13;;;8.93;;
48613;SDS011;34408;51.426;5.444;2023-02-23T14:20:15;14.07;;;9.18;;
48613;SDS011;34408;51.426;5.444;2023-02-23T14:23:04;16.73;;;9.25;;
48613;SDS011;34408;51.426;5.444;2023-02-23T14:25:46;14.45;;;9.50;;
48613;SDS011;34408;51.426;5.444;2023-02-23T14:28:23;14.48;;;9.20;;
48613;SDS011;34408;51.426;5.444;2023-02-23T14:30:59;16.98;;;9.52;;
48613;SDS011;34408;51.426;5.444;2023-02-23T14:33:36;13.10;;;8.55;;
48613;SDS011;34408;51.426;5.444;2023-02-23T14:36:28;11.07;;;8.17;;
48613;SDS011;34408;51.426;5.444;2023-02-23T14:39:02;13.23;;;8.03;;
48613;SDS011;34408;51.426;5.444;2023-02-23T14:41:40;16.08;;;7.65;;
48613;SDS011;34408;51.426;5.444;2023-02-23T14:44:15;14.10;;;7.47;;
48613;SDS011;34408;51.426;5.444;2023-02-23T14:46:56;12.10;;;6.80;;
48613;SDS011;34408;51.426;5.444;2023-02-23T14:49:30;9.40;;;6.07;;
48613;SDS011;34408;51.426;5.444;2023-02-23T14:52:03;13.10;;;5.95;;
48613;SDS011;34408;51.426;5.444;2023-02-23T14:54:34;15.07;;;6.05;;
48613;SDS011;34408;51.426;5.444;2023-02-23T14:57:05;12.00;;;5.90;;
48613;SDS011;34408;51.426;5.444;2023-02-23T14:59:43;11.27;;;5.85;;
48613;SDS011;34408;51.426;5.444;2023-02-23T15:02:16;8.50;;;5.30;;
48613;SDS011;34408;51.426;5.444;2023-02-23T15:04:45;9.52;;;5.30;;
48613;SDS011;34408;51.426;5.444;2023-02-23T15:07:14;10.57;;;5.43;;
48613;SDS011;34408;51.426;5.444;2023-02-23T15:09:50;7.90;;;5.13;;
48613;SDS011;34408;51.426;5.444;2023-02-23T15:12:23;13.48;;;5.95;;
48613;SDS011;34408;51.426;5.444;2023-02-23T15:14:55;9.35;;;5.70;;